CYQD

The Pas Airport

The Pas, Manitoba, Canada
METAR CYQD 201400Z AUTO 16003KT 9SM BKN090 19/16 A3002 RMK SLP170 DENSITY ALT 1400FT
Observed Flight Rules
Jul-20 @ 14:00 UTC (34 minutes ago) Visual Flight Rules
Wind Visibility Clouds
160° at 3 knots 9 miles
  • Broken at 9,000' AGL
Temperatures Readings
Current 19°C / 66°F
Dewpoint 16°C / 61°F
Humidity 83%
Altimeter 30.02" Hg
Pressure 1017 hPa
Elevation 271
METAR CYQD 201400Z AUTO 16003KT 9SM BKN090 19/16 A3002 RMK SLP170 DENSITY ALT 1400FT
Observed Flight Rules
Jul-20 @ 14:00 UTC
(34 minutes ago)
VFR
Wind Visibility
160° at 3 knots 9 miles
Clouds
  • Broken at 9,000' AGL
Temperature Dewpoint
19°C / 66°F 16°C / 61°F
Humidity Altimeter Pressure
83% 30.02" Hg 1017 hPa